Time;durP1;ratioP1;P1;durP2;ratioP2;P2;SDS_P1;SDS_P2;PMS_P1;PMS_P2;Temp;Humidity;BMP_temperature;BMP_pressure;BME280_temperature;BME280_humidity;BME280_pressure;Samples;Min_cycle;Max_cycle;Signal;HPM_P1;HPM_P2
2021/10/28 00:13:53;;;;;;;26.17;11.27;;;12.90;99.90;;;;;;5053910;28;20011;-68
2021/10/28 00:16:30;;;;;;;22.85;10.93;;;12.90;99.90;;;;;;5053882;28;20029;-69
2021/10/28 00:19:03;;;;;;;24.42;12.00;;;12.90;99.90;;;;;;5054257;28;20025;-68
2021/10/28 00:21:31;;;;;;;30.90;12.82;;;12.90;99.90;;;;;;5053747;28;20021;-68
2021/10/28 00:24:02;;;;;;;22.35;13.10;;;12.90;99.90;;;;;;5054263;28;20028;-68
2021/10/28 00:26:29;;;;;;;28.55;12.75;;;12.90;99.90;;;;;;5054158;28;20021;-68
2021/10/28 00:29:00;;;;;;;23.73;13.23;;;12.80;99.90;;;;;;5053884;28;20025;-69
2021/10/28 00:31:27;;;;;;;32.70;14.90;;;12.80;99.90;;;;;;5054379;28;20083;-69
2021/10/28 00:33:53;;;;;;;46.88;17.38;;;12.80;99.90;;;;;;5054132;28;20021;-69
2021/10/28 00:36:19;;;;;;;40.10;17.77;;;12.70;99.90;;;;;;5053462;28;20047;-68
2021/10/28 00:38:45;;;;;;;41.95;16.80;;;12.70;99.90;;;;;;5053718;28;20096;-68
2021/10/28 00:41:11;;;;;;;35.97;19.27;;;12.70;99.90;;;;;;5052441;28;20130;-69
2021/10/28 00:43:45;;;;;;;40.20;20.15;;;12.60;99.90;;;;;;5053926;28;20027;-69
2021/10/28 00:46:11;;;;;;;;;;;12.60;99.90;;;;;;5053545;28;20025;-69
2021/10/28 00:48:37;;;;;;;41.95;20.58;;;12.60;99.90;;;;;;5053645;28;19905;-69
2021/10/28 00:51:06;;;;;;;38.47;19.10;;;12.60;99.90;;;;;;5052230;28;20039;-69
2021/10/28 00:53:32;;;;;;;40.53;20.40;;;12.60;99.90;;;;;;5053527;28;20095;-69
2021/10/28 00:55:58;;;;;;;38.15;21.73;;;12.50;99.90;;;;;;5053243;28;20028;-68
2021/10/28 00:58:24;;;;;;;43.17;19.80;;;12.50;99.90;;;;;;5053683;28;20517;-69
2021/10/28 01:00:51;;;;;;;39.25;19.40;;;12.50;99.90;;;;;;5052904;28;20033;-69
2021/10/28 01:03:18;;;;;;;37.30;20.45;;;12.50;99.90;;;;;;5053426;28;20025;-69
2021/10/28 01:05:44;;;;;;;45.75;18.83;;;12.50;99.90;;;;;;5053531;28;20033;-69
2021/10/28 01:08:11;;;;;;;34.35;18.80;;;12.50;99.90;;;;;;5053309;28;20082;-69
2021/10/28 01:10:36;;;;;;;28.27;16.23;;;12.50;99.90;;;;;;5053361;28;20028;-69
2021/10/28 01:13:03;;;;;;;38.50;17.65;;;12.50;99.90;;;;;;5052686;28;20032;-69
2021/10/28 01:15:28;;;;;;;33.78;17.02;;;12.50;99.90;;;;;;5053267;28;20021;-69
2021/10/28 01:17:54;;;;;;;33.22;16.83;;;12.50;99.90;;;;;;5053103;28;20074;-69
2021/10/28 01:20:19;;;;;;;36.83;16.15;;;12.50;99.90;;;;;;5053711;28;20029;-69
2021/10/28 01:22:45;;;;;;;37.90;14.75;;;12.50;99.90;;;;;;5053105;28;20029;-69
2021/10/28 01:25:12;;;;;;;32.55;15.07;;;12.50;99.90;;;;;;5051853;28;20029;-69
2021/10/28 01:27:38;;;;;;;28.75;15.05;;;12.60;99.90;;;;;;5052532;28;20103;-69
2021/10/28 01:30:05;;;;;;;30.02;14.95;;;12.60;99.90;;;;;;5053344;28;20072;-69
2021/10/28 01:32:31;;;;;;;28.02;14.95;;;12.60;99.90;;;;;;5053034;28;20418;-69
2021/10/28 01:34:57;;;;;;;30.25;15.48;;;12.60;99.90;;;;;;5053567;28;20071;-69
2021/10/28 01:37:23;;;;;;;27.50;16.17;;;12.60;99.90;;;;;;5052405;28;20025;-69
2021/10/28 01:39:48;;;;;;;42.10;17.52;;;12.50;99.90;;;;;;5052953;28;20017;-69
2021/10/28 01:42:14;;;;;;;39.05;17.60;;;12.50;99.90;;;;;;5053167;28;20078;-69
2021/10/28 01:44:41;;;;;;;40.10;19.42;;;12.60;99.90;;;;;;5052930;28;20033;-69
2021/10/28 01:47:06;;;;;;;47.50;19.55;;;12.60;99.90;;;;;;5052180;28;20033;-69
2021/10/28 01:49:33;;;;;;;43.50;21.70;;;12.50;99.90;;;;;;5052852;28;20029;-69
2021/10/28 01:51:59;;;;;;;44.55;21.77;;;12.50;99.90;;;;;;5052708;28;20025;-69
2021/10/28 01:54:26;;;;;;;39.83;23.70;;;12.50;99.90;;;;;;5052792;28;20036;-69
2021/10/28 01:56:53;;;;;;;49.13;26.13;;;12.40;99.90;;;;;;5052742;28;20021;-69
2021/10/28 01:59:19;;;;;;;43.80;26.38;;;12.40;99.90;;;;;;5052296;28;20053;-68
2021/10/28 02:01:45;;;;;;;38.30;24.95;;;12.30;99.90;;;;;;5053000;28;20029;-68
2021/10/28 02:04:12;;;;;;;43.25;25.95;;;12.30;99.90;;;;;;5052720;28;20025;-69
2021/10/28 02:06:38;;;;;;;45.40;24.23;;;12.30;99.90;;;;;;5054108;28;20025;-69
2021/10/28 02:09:04;;;;;;;49.92;25.92;;;12.30;99.90;;;;;;5056879;28;20028;-69
2021/10/28 02:11:30;;;;;;;42.25;23.67;;;12.20;99.90;;;;;;5055933;28;20029;-69
2021/10/28 02:13:59;;;;;;;36.22;24.63;;;12.20;99.90;;;;;;5056740;28;20124;-69
2021/10/28 02:16:32;;;;;;;40.95;22.45;;;12.20;99.90;;;;;;5056322;28;20075;-69
2021/10/28 02:18:58;;;;;;;;;;;12.20;99.90;;;;;;5056822;28;20084;-69
2021/10/28 02:21:24;;;;;;;34.97;21.38;;;12.20;99.90;;;;;;5056580;28;19908;-69
2021/10/28 02:23:50;;;;;;;52.65;23.35;;;12.20;99.90;;;;;;5055808;28;20017;-69
2021/10/28 02:26:16;;;;;;;35.90;21.23;;;12.20;99.90;;;;;;5056132;28;20059;-69
2021/10/28 02:28:42;;;;;;;36.78;20.77;;;12.20;99.90;;;;;;5056481;28;20387;-69
2021/10/28 02:31:07;;;;;;;37.53;19.55;;;12.20;99.90;;;;;;5056338;28;20075;-69
2021/10/28 02:33:33;;;;;;;34.42;20.73;;;12.10;99.90;;;;;;5056122;28;20388;-69
2021/10/28 02:35:58;;;;;;;32.85;19.75;;;12.10;99.90;;;;;;5056014;28;20036;-69
2021/10/28 02:38:24;;;;;;;35.90;21.42;;;12.20;99.90;;;;;;5055541;28;20036;-69
2021/10/28 02:40:49;;;;;;;38.05;22.23;;;12.10;99.90;;;;;;5056030;28;20054;-69
2021/10/28 02:43:15;;;;;;;36.75;22.45;;;12.10;99.90;;;;;;5055963;28;20032;-69
2021/10/28 02:45:41;;;;;;;54.47;24.48;;;12.20;99.90;;;;;;5055872;28;20021;-69
2021/10/28 02:48:06;;;;;;;41.50;24.70;;;12.10;99.90;;;;;;5053887;28;20041;-69
2021/10/28 02:50:32;;;;;;;35.17;24.60;;;12.10;99.90;;;;;;5055810;28;20396;-69
2021/10/28 02:52:57;;;;;;;49.53;27.05;;;12.10;99.90;;;;;;5055943;28;20122;-69
2021/10/28 02:55:23;;;;;;;49.10;27.17;;;12.10;99.90;;;;;;5055170;28;20025;-69
2021/10/28 02:57:48;;;;;;;48.53;29.38;;;12.10;99.90;;;;;;5055582;28;20032;-69
2021/10/28 03:00:14;;;;;;;50.25;28.02;;;12.10;99.90;;;;;;5056139;28;20032;-69
2021/10/28 03:02:41;;;;;;;36.22;27.95;;;12.10;99.90;;;;;;5055850;28;20039;-69
2021/10/28 03:05:08;;;;;;;38.78;28.33;;;12.10;99.90;;;;;;5055794;28;20083;-69
2021/10/28 03:07:34;;;;;;;41.22;28.02;;;12.10;99.90;;;;;;5055431;28;20068;-69
2021/10/28 03:10:02;;;;;;;49.53;29.17;;;12.10;99.90;;;;;;5054909;28;20048;-69
2021/10/28 03:12:27;;;;;;;50.40;30.63;;;12.00;99.90;;;;;;5055323;28;20027;-69
2021/10/28 03:14:57;;;;;;;48.97;29.75;;;12.10;99.90;;;;;;5055328;28;20096;-69
2021/10/28 03:17:35;;;;;;;48.53;30.52;;;12.00;99.90;;;;;;5055436;28;20104;-69
2021/10/28 03:27:47;;;;;;;42.67;29.23;;;12.00;99.90;;;;;;5035734;28;20061;-69
2021/10/28 03:30:13;;;;;;;43.38;27.83;;;12.00;99.90;;;;;;5048122;28;20029;-69
2021/10/28 03:32:39;;;;;;;47.03;27.63;;;12.00;99.90;;;;;;5054379;28;20029;-69
2021/10/28 03:35:08;;;;;;;43.58;29.50;;;12.00;99.90;;;;;;5054935;28;20446;-69
2021/10/28 03:37:45;;;;;;;56.20;28.80;;;12.00;99.90;;;;;;5054122;28;20029;-69
2021/10/28 03:40:30;;;;;;;52.13;32.13;;;11.90;99.90;;;;;;5054864;28;20104;-69
2021/10/28 03:51:40;;;;;;;68.57;35.78;;;12.00;99.90;;;;;;5054967;28;20037;-68
2021/10/28 04:07:50;;;;;;;67.35;39.85;;;11.90;99.90;;;;;;5053740;28;20029;-68
2021/10/28 04:18:45;;;;;;;;;;;11.90;99.90;;;;;;5054174;28;20420;-69
2021/10/28 04:29:28;;;;;;;;;;;11.80;99.90;;;;;;5053455;28;20035;-69
2021/10/28 04:31:54;;;;;;;59.72;33.92;;;11.80;99.90;;;;;;5052964;28;19913;-69
2021/10/28 04:34:20;;;;;;;59.67;34.38;;;11.80;99.90;;;;;;5052558;28;20025;-69
2021/10/28 04:36:46;;;;;;;55.88;35.80;;;11.80;99.90;;;;;;5053545;28;20567;-69
2021/10/28 04:39:11;;;;;;;69.32;36.72;;;11.80;99.90;;;;;;5053559;28;20108;-69
2021/10/28 04:41:38;;;;;;;53.78;33.97;;;11.80;99.90;;;;;;5053804;28;20040;-69
2021/10/28 04:44:07;;;;;;;52.80;32.90;;;11.80;99.90;;;;;;5053632;28;20037;-69
2021/10/28 04:46:33;;;;;;;66.22;36.55;;;11.80;99.90;;;;;;5049616;28;20029;-69
2021/10/28 04:48:59;;;;;;;69.40;37.30;;;11.80;99.90;;;;;;5053682;28;20074;-69
2021/10/28 04:51:24;;;;;;;56.97;36.17;;;11.80;99.90;;;;;;5053478;28;20369;-69
2021/10/28 04:53:50;;;;;;;64.95;36.42;;;11.80;99.90;;;;;;5052972;28;20029;-69
2021/10/28 04:56:15;;;;;;;62.47;38.53;;;11.80;99.90;;;;;;5052575;28;20021;-69
2021/10/28 04:58:42;;;;;;;66.70;38.42;;;11.80;99.90;;;;;;5053275;28;20040;-69
2021/10/28 05:01:07;;;;;;;62.58;36.47;;;11.80;99.90;;;;;;5052647;28;20060;-69
2021/10/28 05:03:35;;;;;;;72.72;39.13;;;11.80;99.90;;;;;;5052394;28;20106;-69
2021/10/28 05:06:00;;;;;;;72.00;39.67;;;11.80;99.90;;;;;;5042383;28;20024;-69
2021/10/28 05:08:26;;;;;;;66.75;37.83;;;11.80;99.90;;;;;;5052903;28;20430;-69
2021/10/28 05:10:52;;;;;;;65.40;39.47;;;11.70;99.90;;;;;;5053388;28;20017;-69
2021/10/28 05:13:17;;;;;;;81.30;40.50;;;11.70;99.90;;;;;;5052657;28;20064;-69
2021/10/28 05:15:54;;;;;;;76.90;39.55;;;11.70;99.90;;;;;;5052672;28;20017;-69
2021/10/28 05:18:23;;;;;;;64.75;37.25;;;11.80;99.90;;;;;;5053231;28;20013;-69
2021/10/28 05:20:50;;;;;;;66.20;37.33;;;11.80;99.90;;;;;;5052611;28;20049;-69
2021/10/28 05:23:16;;;;;;;72.97;39.30;;;11.70;99.90;;;;;;5051806;28;20036;-69
2021/10/28 05:25:41;;;;;;;70.90;40.83;;;11.70;99.90;;;;;;5052548;28;20395;-69
2021/10/28 05:28:07;;;;;;;67.80;38.03;;;11.70;99.90;;;;;;5051961;28;20037;-69
2021/10/28 05:30:33;;;;;;;69.35;39.00;;;11.80;99.90;;;;;;5052756;28;20029;-69
2021/10/28 05:33:00;;;;;;;67.50;37.78;;;11.70;99.90;;;;;;5052886;28;20029;-69
2021/10/28 05:35:26;;;;;;;61.83;36.97;;;11.70;99.90;;;;;;5052340;28;20077;-69
2021/10/28 05:37:53;;;;;;;80.78;39.38;;;11.70;99.90;;;;;;5051737;28;20032;-69
2021/10/28 05:40:19;;;;;;;62.42;38.13;;;11.70;99.90;;;;;;5053126;28;20075;-69
2021/10/28 05:42:48;;;;;;;67.85;38.30;;;11.80;99.90;;;;;;5056400;28;20037;-69
2021/10/28 05:45:15;;;;;;;60.60;36.78;;;11.70;99.90;;;;;;5056861;28;20104;-69
2021/10/28 05:47:41;;;;;;;64.32;36.70;;;11.70;99.90;;;;;;5088297;22;20041;-75
2021/10/28 05:50:09;;;;;;;65.85;38.88;;;11.70;99.90;;;;;;5056124;28;20021;-75
2021/10/28 05:52:35;;;;;;;62.88;37.53;;;11.70;99.90;;;;;;5056206;28;20025;-74
2021/10/28 05:55:04;;;;;;;60.50;36.17;;;11.70;99.90;;;;;;5056756;28;20017;-74
2021/10/28 05:57:31;;;;;;;66.95;37.53;;;11.70;99.90;;;;;;5056044;28;20024;-74
2021/10/28 05:59:57;;;;;;;59.20;35.38;;;11.60;99.90;;;;;;5054862;28;20391;-74
2021/10/28 06:02:23;;;;;;;57.30;35.10;;;11.60;99.90;;;;;;5055377;28;20035;-74
2021/10/28 06:04:49;;;;;;;65.55;36.35;;;11.60;99.90;;;;;;5056724;28;20099;-75
2021/10/28 06:07:14;;;;;;;55.95;33.05;;;11.60;99.90;;;;;;5055204;28;20113;-74
2021/10/28 06:09:40;;;;;;;56.33;36.42;;;11.60;99.90;;;;;;5055926;28;20064;-74
2021/10/28 06:12:07;;;;;;;71.70;37.22;;;11.50;99.90;;;;;;5055389;28;20033;-74
2021/10/28 06:14:33;;;;;;;57.55;34.45;;;11.50;99.90;;;;;;5055940;28;20095;-74
2021/10/28 06:17:07;;;;;;;56.25;33.15;;;11.50;99.90;;;;;;5055127;28;20472;-74
2021/10/28 06:19:33;;;;;;;61.15;35.47;;;11.50;99.90;;;;;;5055874;28;20025;-74
2021/10/28 06:21:59;;;;;;;63.92;36.00;;;11.40;99.90;;;;;;5055605;28;20029;-74
2021/10/28 06:24:24;;;;;;;54.33;34.80;;;11.50;99.90;;;;;;5055778;28;20052;-74
2021/10/28 06:26:50;;;;;;;59.22;34.08;;;11.40;99.90;;;;;;5055761;28;20029;-74
2021/10/28 06:29:15;;;;;;;50.42;32.58;;;11.40;99.90;;;;;;5051548;28;20021;-74
2021/10/28 06:31:41;;;;;;;57.72;33.63;;;11.40;99.90;;;;;;5049418;28;20547;-74
2021/10/28 06:34:10;;;;;;;57.28;35.22;;;11.40;99.90;;;;;;5056138;28;20035;-75
2021/10/28 06:36:38;;;;;;;64.75;35.80;;;11.40;99.90;;;;;;5040882;28;20068;-74
2021/10/28 06:39:05;;;;;;;64.07;35.22;;;11.30;99.90;;;;;;5056132;28;20111;-74
2021/10/28 06:41:31;;;;;;;54.83;33.17;;;11.40;99.90;;;;;;5055377;28;20100;-74
2021/10/28 06:43:59;;;;;;;61.15;33.28;;;11.40;99.90;;;;;;5055278;28;20095;-74
2021/10/28 06:46:26;;;;;;;60.15;33.67;;;11.30;99.90;;;;;;5034744;28;20026;-74
2021/10/28 06:48:52;;;;;;;52.88;34.67;;;11.30;99.90;;;;;;5035655;28;20037;-74
2021/10/28 06:51:19;;;;;;;54.22;34.67;;;11.30;99.90;;;;;;5042504;28;20032;-74
2021/10/28 07:02:18;;;;;;;54.20;32.15;;;11.30;99.90;;;;;;5055038;28;19912;-74
2021/10/28 07:04:46;;;;;;;54.10;32.92;;;11.20;99.90;;;;;;5055545;28;20025;-74
2021/10/28 07:07:12;;;;;;;60.70;34.72;;;11.20;99.90;;;;;;5055532;28;20017;-74
2021/10/28 07:09:42;;;;;;;55.72;32.95;;;11.20;99.90;;;;;;5054716;28;20178;-74
2021/10/28 07:14:36;;;;;;;62.38;37.35;;;11.20;99.90;;;;;;5055493;28;20025;-74
2021/10/28 07:17:23;;;;;;;68.45;37.15;;;11.20;99.90;;;;;;5055202;28;20024;-74
2021/10/28 07:30:39;;;;;;;70.88;41.13;;;11.30;99.90;;;;;;5054598;28;20110;-74
2021/10/28 08:00:22;;;;;;;66.85;38.67;;;11.50;99.90;;;;;;5054368;28;20409;-74
2021/10/28 08:05:48;;;;;;;56.25;34.42;;;11.50;99.90;;;;;;5046201;28;20044;-74
2021/10/28 08:19:07;;;;;;;56.33;32.22;;;11.60;99.90;;;;;;5053340;28;20029;-73
2021/10/28 08:24:19;;;;;;;55.45;32.67;;;11.70;99.90;;;;;;5054084;28;20055;-74
2021/10/28 08:31:55;;;;;;;50.95;32.85;;;11.80;99.90;;;;;;5042237;28;20032;-74
2021/10/28 08:34:30;;;;;;;45.22;29.60;;;11.90;99.90;;;;;;5053513;28;20480;-74
2021/10/28 08:37:05;;;;;;;44.95;29.77;;;12.00;99.90;;;;;;5053997;28;20033;-74
2021/10/28 08:39:31;;;;;;;49.38;26.75;;;12.00;99.90;;;;;;5052886;28;20025;-74
2021/10/28 08:42:02;;;;;;;38.25;26.52;;;12.10;99.90;;;;;;5053066;28;20040;-74
2021/10/28 08:44:31;;;;;;;49.83;28.52;;;12.10;99.90;;;;;;5053203;28;20031;-74
2021/10/28 08:46:57;;;;;;;50.55;27.38;;;12.20;99.90;;;;;;5053203;28;20107;-74
2021/10/28 08:49:29;;;;;;;51.08;27.55;;;12.20;99.90;;;;;;5052950;28;20373;-74
2021/10/28 08:52:06;;;;;;;42.38;26.88;;;12.30;99.90;;;;;;5051807;28;20029;-74
2021/10/28 08:57:25;;;;;;;;;;;12.50;99.90;;;;;;5053131;28;20045;-74
2021/10/28 09:00:21;;;;;;;39.85;24.73;;;12.40;99.90;;;;;;5053226;28;19912;-74
2021/10/28 09:25:29;;;;;;;36.80;21.85;;;12.90;99.90;;;;;;5052766;28;20043;-74
2021/10/28 09:30:41;;;;;;;33.35;20.85;;;13.00;99.90;;;;;;5052432;28;20021;-73
2021/10/28 09:33:11;;;;;;;39.78;20.95;;;13.10;99.90;;;;;;5051742;28;20476;-74
2021/10/28 09:36:11;;;;;;;35.22;20.13;;;13.20;99.90;;;;;;5052147;28;20472;-73
2021/10/28 09:45:01;;;;;;;29.55;19.00;;;13.30;99.90;;;;;;5053329;28;20075;-73
2021/10/28 09:47:35;;;;;;;46.75;20.33;;;13.40;99.90;;;;;;5052783;28;20025;-74
2021/10/28 09:50:13;;;;;;;32.42;18.48;;;13.40;99.90;;;;;;5052308;28;20431;-73
2021/10/28 09:52:52;;;;;;;33.28;18.58;;;13.50;99.90;;;;;;5053106;28;20384;-74
2021/10/28 09:58:32;;;;;;;30.58;18.23;;;13.60;99.90;;;;;;4979467;28;20105;-73
2021/10/28 10:01:01;;;;;;;32.10;17.70;;;13.60;99.90;;;;;;5039730;28;20031;-73
2021/10/28 10:03:34;;;;;;;32.78;18.70;;;13.50;99.90;;;;;;5052947;28;20025;-73
2021/10/28 10:06:04;;;;;;;32.63;18.73;;;13.70;99.90;;;;;;5052104;28;20048;-73
2021/10/28 10:08:30;;;;;;;27.77;17.10;;;13.80;99.90;;;;;;5052649;28;20025;-73
2021/10/28 10:10:57;;;;;;;32.10;16.90;;;13.80;99.90;;;;;;5039459;28;20032;-73
2021/10/28 10:13:29;;;;;;;32.40;16.80;;;13.90;99.90;;;;;;5032191;28;20057;-73
2021/10/28 10:15:57;;;;;;;25.00;15.57;;;13.90;99.90;;;;;;5042128;28;20096;-73
2021/10/28 10:18:34;;;;;;;29.00;17.00;;;13.90;99.90;;;;;;5051322;28;20104;-73
2021/10/28 10:21:19;;;;;;;28.58;15.27;;;14.00;99.90;;;;;;5051500;28;20052;-74
2021/10/28 10:24:37;;;;;;;28.70;14.85;;;14.10;99.90;;;;;;5052650;28;20111;-74
2021/10/28 12:15:15;;;;;;;15.48;7.20;;;16.00;99.90;;;;;;5054622;28;20384;-69
2021/10/28 12:27:53;;;;;;;12.75;6.18;;;16.70;99.90;;;;;;5053656;28;20536;-69
2021/10/28 12:46:01;;;;;;;10.02;4.47;;;18.40;99.90;;;;;;5054030;28;20442;-69
2021/10/28 12:49:06;;;;;;;8.10;4.15;;;18.90;99.90;;;;;;5053062;28;20036;-69
2021/10/28 12:51:52;;;;;;;10.65;4.30;;;19.40;99.90;;;;;;5052966;28;20025;-69
2021/10/28 13:35:55;;;;;;;10.55;5.57;;;17.20;99.90;;;;;;5053356;28;20035;-69
2021/10/28 13:59:55;;;;;;;11.30;7.25;;;16.40;99.90;;;;;;5053033;28;20082;-68
2021/10/28 15:32:03;;;;;;;11.75;8.52;;;14.40;99.90;;;;;;5055367;28;20064;-69
2021/10/28 15:34:34;;;;;;;14.93;8.38;;;14.20;99.90;;;;;;5054930;28;20035;-69
2021/10/28 15:37:17;;;;;;;18.52;9.25;;;13.90;99.90;;;;;;5042177;28;20017;-68
2021/10/28 15:39:57;;;;;;;21.10;10.02;;;13.70;99.90;;;;;;5035106;28;20021;-68
2021/10/28 15:53:19;;;;;;;17.02;9.98;;;12.90;99.90;;;;;;5034603;28;20072;-68
2021/10/28 15:56:22;;;;;;;19.17;10.95;;;12.90;99.90;;;;;;5035085;28;20425;-69
2021/10/28 16:23:16;;;;;;;;;;;11.90;99.90;;;;;;5046135;28;20036;-69
2021/10/28 16:25:42;;;;;;;17.70;12.30;;;11.80;99.90;;;;;;5053409;28;19905;-69
2021/10/28 16:28:08;;;;;;;25.05;12.32;;;11.80;99.90;;;;;;5053955;28;20029;-68
2021/10/28 16:30:35;;;;;;;23.75;12.88;;;11.80;99.90;;;;;;5053101;28;20392;-69
2021/10/28 16:33:00;;;;;;;22.17;13.75;;;11.80;99.90;;;;;;5053564;28;20608;-69
2021/10/28 16:35:26;;;;;;;20.75;12.98;;;11.80;99.90;;;;;;5052409;28;20101;-69
2021/10/28 16:37:52;;;;;;;19.23;13.13;;;11.80;99.90;;;;;;5053818;28;20021;-72
2021/10/28 16:40:18;;;;;;;18.70;12.63;;;11.80;99.90;;;;;;5054275;28;20077;-70
2021/10/28 16:42:44;;;;;;;20.20;13.07;;;11.70;99.90;;;;;;5053752;28;20040;-70
2021/10/28 16:45:10;;;;;;;23.67;13.07;;;11.70;99.90;;;;;;5051562;28;20032;-71
2021/10/28 16:47:36;;;;;;;17.77;11.25;;;11.60;99.90;;;;;;5053186;28;20033;-69
2021/10/28 16:50:03;;;;;;;17.88;11.88;;;11.60;99.90;;;;;;5054006;28;20051;-68
2021/10/28 16:52:29;;;;;;;19.25;12.77;;;11.50;99.90;;;;;;5053510;28;20063;-68
2021/10/28 16:54:54;;;;;;;21.45;12.85;;;11.50;99.90;;;;;;5053142;28;20424;-69
2021/10/28 16:57:20;;;;;;;21.73;12.55;;;11.50;99.90;;;;;;5053359;28;20021;-68
2021/10/28 16:59:45;;;;;;;24.48;12.65;;;11.40;99.90;;;;;;5051932;28;20021;-68
2021/10/28 17:02:11;;;;;;;18.15;12.13;;;11.40;99.90;;;;;;5053470;28;20480;-68
2021/10/28 17:04:37;;;;;;;19.23;12.20;;;11.50;99.90;;;;;;5052650;28;20021;-68
2021/10/28 17:07:02;;;;;;;20.77;12.63;;;11.40;99.90;;;;;;5050936;28;20021;-68
2021/10/28 17:09:28;;;;;;;24.40;12.30;;;11.40;99.90;;;;;;5033362;28;20025;-68
2021/10/28 17:11:54;;;;;;;23.23;13.00;;;11.40;99.90;;;;;;5033625;28;20025;-68
2021/10/28 17:14:20;;;;;;;18.52;12.38;;;11.40;99.90;;;;;;5047031;28;20380;-68
2021/10/28 17:16:47;;;;;;;22.13;12.77;;;11.30;99.90;;;;;;5053830;28;20025;-68
2021/10/28 17:19:14;;;;;;;17.70;12.45;;;11.30;99.90;;;;;;5052482;28;20017;-69
2021/10/28 17:21:42;;;;;;;19.40;12.27;;;11.30;99.90;;;;;;5054022;28;20364;-70
2021/10/28 17:24:19;;;;;;;20.95;13.07;;;11.30;99.90;;;;;;5053037;28;20388;-69
2021/10/28 17:26:45;;;;;;;25.83;12.35;;;11.30;99.90;;;;;;5053247;28;20443;-68
2021/10/28 17:29:12;;;;;;;19.52;12.38;;;11.30;99.90;;;;;;5051758;28;20021;-68
2021/10/28 17:31:37;;;;;;;19.90;11.57;;;11.40;99.90;;;;;;5051629;28;20082;-68
2021/10/28 17:34:04;;;;;;;18.48;11.98;;;11.30;99.90;;;;;;5053080;28;20060;-69
2021/10/28 17:36:30;;;;;;;18.00;13.10;;;11.20;99.90;;;;;;5055212;28;20028;-69
2021/10/28 17:38:56;;;;;;;20.98;11.55;;;11.30;99.90;;;;;;5059080;28;20420;-69
2021/10/28 17:41:22;;;;;;;21.65;12.32;;;11.20;99.90;;;;;;5059953;28;20021;-69
2021/10/28 17:43:53;;;;;;;19.58;11.48;;;11.20;99.90;;;;;;5058485;28;20043;-69
2021/10/28 17:46:20;;;;;;;21.40;11.38;;;11.20;99.90;;;;;;5058753;28;20025;-69
2021/10/28 17:48:49;;;;;;;17.88;11.98;;;11.20;99.90;;;;;;5149400;22;20041;-74
2021/10/28 17:51:15;;;;;;;19.48;11.95;;;11.20;99.90;;;;;;5058329;28;20020;-75
2021/10/28 17:53:43;;;;;;;17.88;12.02;;;11.20;99.90;;;;;;5059190;28;20029;-74
2021/10/28 17:56:10;;;;;;;23.95;10.98;;;11.20;99.90;;;;;;5074472;28;20028;-75
2021/10/28 17:58:36;;;;;;;17.85;11.80;;;11.30;99.90;;;;;;5059435;28;20089;-74
2021/10/28 18:01:01;;;;;;;20.40;11.57;;;11.30;99.90;;;;;;5058641;28;20112;-74
2021/10/28 18:03:27;;;;;;;15.52;11.48;;;11.30;99.90;;;;;;5059752;28;20033;-74
2021/10/28 18:05:52;;;;;;;20.77;10.98;;;11.30;99.90;;;;;;5058713;28;20219;-74
2021/10/28 18:08:18;;;;;;;16.10;10.80;;;11.20;99.90;;;;;;5059449;28;20476;-74
2021/10/28 18:10:45;;;;;;;17.52;11.13;;;11.30;99.90;;;;;;5058531;28;20025;-74
2021/10/28 18:13:12;;;;;;;16.75;10.48;;;11.30;99.90;;;;;;5058071;28;20112;-74
2021/10/28 18:15:42;;;;;;;18.08;10.98;;;11.20;99.90;;;;;;5059410;28;20100;-74
2021/10/28 18:18:08;;;;;;;15.95;10.57;;;11.20;99.90;;;;;;5058652;28;20017;-74
2021/10/28 18:20:35;;;;;;;16.98;10.43;;;11.20;99.90;;;;;;5059676;28;20025;-74
2021/10/28 18:23:01;;;;;;;22.60;11.25;;;11.10;99.90;;;;;;5059319;28;20037;-74
2021/10/28 18:25:27;;;;;;;15.23;10.90;;;11.10;99.90;;;;;;5059598;28;20043;-74
2021/10/28 18:27:56;;;;;;;13.95;9.70;;;11.10;99.90;;;;;;5059147;28;20427;-74
2021/10/28 18:30:22;;;;;;;20.02;9.80;;;11.10;99.90;;;;;;5058970;28;20036;-74
2021/10/28 18:32:48;;;;;;;21.42;10.80;;;11.10;99.90;;;;;;5059069;28;20103;-74
2021/10/28 18:35:13;;;;;;;12.18;8.85;;;11.20;99.90;;;;;;5059047;28;20111;-74
2021/10/28 18:37:42;;;;;;;12.63;8.65;;;11.20;99.90;;;;;;5053852;28;20076;-74
2021/10/28 18:40:08;;;;;;;12.13;8.60;;;11.20;99.90;;;;;;5059105;28;20365;-74
2021/10/28 18:42:34;;;;;;;13.15;8.95;;;11.10;99.90;;;;;;5059326;28;20498;-74
2021/10/28 18:45:00;;;;;;;12.48;9.57;;;11.00;99.90;;;;;;5058319;28;20031;-74
2021/10/28 18:47:26;;;;;;;15.57;10.00;;;11.00;99.90;;;;;;5056708;28;20108;-74
2021/10/28 18:49:52;;;;;;;12.70;9.43;;;11.00;99.90;;;;;;5055588;28;20391;-74
2021/10/28 18:52:18;;;;;;;14.85;9.48;;;11.00;99.90;;;;;;5055853;28;20017;-75
2021/10/28 18:54:45;;;;;;;16.73;10.30;;;11.00;99.90;;;;;;5053471;28;20048;-78
2021/10/28 18:57:12;;;;;;;15.73;10.13;;;11.00;99.90;;;;;;5055659;28;20021;-78
2021/10/28 18:59:40;;;;;;;15.50;9.30;;;10.90;99.90;;;;;;5060223;28;20036;-78
2021/10/28 19:02:06;;;;;;;19.17;10.80;;;10.90;99.90;;;;;;5055755;28;20154;-77
2021/10/28 19:04:32;;;;;;;15.93;9.57;;;10.90;99.90;;;;;;5054114;28;20052;-77
2021/10/28 19:06:58;;;;;;;21.13;10.88;;;10.90;99.90;;;;;;5054200;28;20102;-77
2021/10/28 19:09:23;;;;;;;16.05;9.38;;;10.90;99.90;;;;;;5056912;28;20072;-78
2021/10/28 19:11:49;;;;;;;17.63;9.68;;;10.90;99.90;;;;;;5049035;28;20135;-77
2021/10/28 19:14:14;;;;;;;15.57;9.65;;;10.90;99.90;;;;;;5054287;28;20032;-77
2021/10/28 19:16:40;;;;;;;14.73;8.90;;;10.90;99.90;;;;;;5053229;28;20025;-76
2021/10/28 19:19:07;;;;;;;20.55;9.35;;;10.80;99.90;;;;;;5055303;28;20029;-77
2021/10/28 19:21:33;;;;;;;13.73;8.73;;;10.80;99.90;;;;;;5047848;28;20106;-77
2021/10/28 19:23:58;;;;;;;13.32;8.75;;;10.70;99.90;;;;;;5054288;28;20473;-77
2021/10/28 19:26:25;;;;;;;12.45;8.60;;;10.60;99.90;;;;;;5056948;28;20130;-78
2021/10/28 19:28:51;;;;;;;14.13;8.63;;;10.60;99.90;;;;;;5059880;28;20396;-77
2021/10/28 19:31:31;;;;;;;17.27;9.27;;;10.70;99.90;;;;;;5057966;28;20368;-77
2021/10/28 19:34:02;;;;;;;16.38;8.70;;;10.60;99.90;;;;;;5060121;28;20024;-78
2021/10/28 19:36:52;;;;;;;14.38;8.73;;;10.60;99.90;;;;;;5059506;28;20024;-78
2021/10/28 19:39:46;;;;;;;16.42;8.82;;;10.60;99.90;;;;;;5053429;28;20464;-79
2021/10/28 19:47:25;;;;;;;12.80;7.60;;;10.60;99.90;;;;;;5063554;28;20048;-78
2021/10/28 19:49:51;;;;;;;13.50;8.27;;;10.60;99.90;;;;;;5059236;28;20025;-79
2021/10/28 19:52:17;;;;;;;17.83;9.23;;;10.60;99.90;;;;;;5077081;28;20380;-78
2021/10/28 19:54:47;;;;;;;11.93;8.55;;;10.60;99.90;;;;;;5054176;28;20017;-74
2021/10/28 19:57:19;;;;;;;16.17;8.80;;;10.60;99.90;;;;;;5054280;28;20072;-74
2021/10/28 19:59:50;;;;;;;13.05;8.68;;;10.70;99.90;;;;;;5053870;28;20025;-73
2021/10/28 20:02:26;;;;;;;13.68;8.82;;;10.60;99.90;;;;;;5053608;28;20020;-73
2021/10/28 20:07:43;;;;;;;10.68;8.30;;;10.60;99.90;;;;;;5054308;28;20048;-73
2021/10/28 20:20:04;;;;;;;12.48;7.78;;;10.50;99.90;;;;;;5054600;28;20044;-73
2021/10/28 20:21:19;;;;;;;14.00;10.00;;;10.50;99.90;;;;;;5054095;28;20063;-73
2021/10/28 20:23:45;;;;;;;15.90;8.02;;;10.40;99.90;;;;;;5054431;28;20062;-74
2021/10/28 20:26:10;;;;;;;14.80;8.40;;;10.30;99.90;;;;;;5052026;28;20541;-73
2021/10/28 20:28:40;;;;;;;12.40;7.90;;;10.40;99.90;;;;;;5054000;28;20112;-73
2021/10/28 20:31:07;;;;;;;22.20;9.90;;;10.30;99.90;;;;;;5054301;28;20017;-73
2021/10/28 20:33:41;;;;;;;13.60;8.13;;;10.40;99.90;;;;;;5053641;28;20392;-73
2021/10/28 20:37:05;;;;;;;13.80;8.95;;;10.40;99.90;;;;;;5053225;28;20029;-73
2021/10/28 20:39:02;;;;;;;13.57;6.72;;;10.30;99.90;;;;;;5053671;28;20487;-73
2021/10/28 20:41:28;;;;;;;12.27;8.13;;;10.30;99.90;;;;;;5053254;28;20029;-73
2021/10/28 20:43:56;;;;;;;13.57;8.70;;;10.30;99.90;;;;;;5052521;28;20048;-74
2021/10/28 20:46:23;;;;;;;13.82;8.55;;;10.20;99.90;;;;;;5053475;28;20139;-73
2021/10/28 20:48:51;;;;;;;14.02;8.15;;;10.30;99.90;;;;;;5053606;28;20036;-73
2021/10/28 20:51:17;;;;;;;12.13;8.70;;;10.40;99.90;;;;;;5052343;28;20435;-74
2021/10/28 20:53:43;;;;;;;16.75;8.43;;;10.30;99.90;;;;;;5053323;28;20025;-74
2021/10/28 20:56:09;;;;;;;15.13;9.30;;;10.30;99.90;;;;;;5052337;28;20048;-73
2021/10/28 20:58:36;;;;;;;17.35;8.55;;;10.30;99.90;;;;;;5044027;28;20391;-73
2021/10/28 21:01:03;;;;;;;12.80;8.93;;;10.30;99.90;;;;;;5053008;28;20025;-73
2021/10/28 21:03:28;;;;;;;14.57;7.85;;;10.20;99.90;;;;;;5053432;28;20024;-73